sensor_id;sensor_type;location;lat;lon;timestamp;pressure;altitude;pressure_sealevel;temperature;humidity
44148;BME280;29810;55.848;37.368;2023-05-23T00:02:28;99525.97;;;12.67;86.46
44148;BME280;29810;55.848;37.368;2023-05-23T00:05:30;99525.06;;;12.68;85.72
44148;BME280;29810;55.848;37.368;2023-05-23T00:08:31;99494.34;;;12.51;85.49
44148;BME280;29810;55.848;37.368;2023-05-23T00:11:33;99522.81;;;12.58;86.51
44148;BME280;29810;55.848;37.368;2023-05-23T00:14:34;99524.62;;;12.56;86.26
44148;BME280;29810;55.848;37.368;2023-05-23T00:17:35;99525.75;;;12.49;87.01
44148;BME280;29810;55.848;37.368;2023-05-23T00:20:38;99516.09;;;12.51;86.56
44148;BME280;29810;55.848;37.368;2023-05-23T00:23:43;99516.25;;;12.48;86.82
44148;BME280;29810;55.848;37.368;2023-05-23T00:26:45;99513.72;;;12.45;86.98
44148;BME280;29810;55.848;37.368;2023-05-23T00:29:46;99513.56;;;12.50;85.94
44148;BME280;29810;55.848;37.368;2023-05-23T00:32:47;99512.09;;;12.42;87.94
44148;BME280;29810;55.848;37.368;2023-05-23T00:35:49;99518.06;;;12.46;88.26
44148;BME280;29810;55.848;37.368;2023-05-23T00:38:50;99513.66;;;12.47;87.93
44148;BME280;29810;55.848;37.368;2023-05-23T00:41:53;99520.66;;;12.46;87.34
44148;BME280;29810;55.848;37.368;2023-05-23T00:44:55;99516.34;;;12.45;87.95
44148;BME280;29810;55.848;37.368;2023-05-23T00:47:56;99515.50;;;12.45;88.09
44148;BME280;29810;55.848;37.368;2023-05-23T00:50:59;99516.41;;;12.43;87.83
44148;BME280;29810;55.848;37.368;2023-05-23T00:54:02;99515.88;;;12.35;88.36
44148;BME280;29810;55.848;37.368;2023-05-23T00:57:04;99511.25;;;12.42;88.12
44148;BME280;29810;55.848;37.368;2023-05-23T01:00:06;99514.84;;;12.39;87.84
44148;BME280;29810;55.848;37.368;2023-05-23T01:03:10;99520.00;;;12.41;87.80
44148;BME280;29810;55.848;37.368;2023-05-23T01:06:18;99512.34;;;12.36;87.40
44148;BME280;29810;55.848;37.368;2023-05-23T01:09:20;99511.69;;;12.31;88.17
44148;BME280;29810;55.848;37.368;2023-05-23T01:12:30;99511.25;;;12.42;87.73
44148;BME280;29810;55.848;37.368;2023-05-23T01:15:36;99506.84;;;12.42;87.28
44148;BME280;29810;55.848;37.368;2023-05-23T01:19:46;99511.13;;;12.45;87.08
44148;BME280;29810;55.848;37.368;2023-05-23T01:22:11;99504.84;;;12.49;86.84
44148;BME280;29810;55.848;37.368;2023-05-23T01:28:34;99502.19;;;12.51;86.41
44148;BME280;29810;55.848;37.368;2023-05-23T01:31:38;99504.44;;;12.60;86.20
44148;BME280;29810;55.848;37.368;2023-05-23T01:34:42;99495.03;;;12.76;85.39
44148;BME280;29810;55.848;37.368;2023-05-23T01:37:44;99490.13;;;12.89;84.93
44148;BME280;29810;55.848;37.368;2023-05-23T01:40:46;99487.44;;;12.91;83.30
44148;BME280;29810;55.848;37.368;2023-05-23T01:43:47;99489.69;;;13.00;82.85
44148;BME280;29810;55.848;37.368;2023-05-23T01:46:48;99496.69;;;13.00;82.08
44148;BME280;29810;55.848;37.368;2023-05-23T01:49:50;99490.78;;;13.15;81.81
44148;BME280;29810;55.848;37.368;2023-05-23T01:52:53;99487.78;;;13.24;81.05
44148;BME280;29810;55.848;37.368;2023-05-23T01:55:55;99489.50;;;13.46;80.47
44148;BME280;29810;55.848;37.368;2023-05-23T01:58:56;99484.13;;;14.06;77.35
44148;BME280;29810;55.848;37.368;2023-05-23T02:01:57;99478.41;;;14.35;75.65
44148;BME280;29810;55.848;37.368;2023-05-23T02:04:59;99471.94;;;15.14;71.32
44148;BME280;29810;55.848;37.368;2023-05-23T02:08:00;99491.34;;;15.94;68.31
44148;BME280;29810;55.848;37.368;2023-05-23T02:11:02;99492.03;;;16.46;67.82
44148;BME280;29810;55.848;37.368;2023-05-23T02:14:03;99476.19;;;16.15;67.60
44148;BME280;29810;55.848;37.368;2023-05-23T02:17:05;99470.88;;;16.47;66.66
44148;BME280;29810;55.848;37.368;2023-05-23T02:20:07;99466.31;;;16.35;66.45
44148;BME280;29810;55.848;37.368;2023-05-23T02:23:09;99453.97;;;16.05;66.86
44148;BME280;29810;55.848;37.368;2023-05-23T02:26:11;99453.22;;;15.53;66.53
44148;BME280;29810;55.848;37.368;2023-05-23T02:29:17;99452.53;;;16.46;65.87
44148;BME280;29810;55.848;37.368;2023-05-23T02:32:19;99458.88;;;17.47;60.35
44148;BME280;29810;55.848;37.368;2023-05-23T02:35:21;99454.13;;;17.24;61.57
44148;BME280;29810;55.848;37.368;2023-05-23T02:38:23;99449.06;;;16.76;61.68
44148;BME280;29810;55.848;37.368;2023-05-23T02:41:26;99454.44;;;16.28;62.49
44148;BME280;29810;55.848;37.368;2023-05-23T02:44:28;99458.53;;;16.17;63.89
44148;BME280;29810;55.848;37.368;2023-05-23T02:47:31;99473.72;;;16.12;63.92
44148;BME280;29810;55.848;37.368;2023-05-23T02:50:32;99462.56;;;16.23;64.07
44148;BME280;29810;55.848;37.368;2023-05-23T02:53:33;99451.91;;;17.46;62.87
44148;BME280;29810;55.848;37.368;2023-05-23T02:56:35;99436.50;;;19.04;58.59
44148;BME280;29810;55.848;37.368;2023-05-23T02:59:36;99426.31;;;20.48;54.39
44148;BME280;29810;55.848;37.368;2023-05-23T03:02:37;99420.09;;;21.30;48.78
44148;BME280;29810;55.848;37.368;2023-05-23T03:05:39;99427.09;;;21.42;49.40
44148;BME280;29810;55.848;37.368;2023-05-23T03:08:40;99435.28;;;21.16;47.44
44148;BME280;29810;55.848;37.368;2023-05-23T03:11:42;99433.88;;;20.88;49.78
44148;BME280;29810;55.848;37.368;2023-05-23T03:14:43;99437.81;;;21.29;49.07
44148;BME280;29810;55.848;37.368;2023-05-23T03:17:45;99432.41;;;21.76;49.27
44148;BME280;29810;55.848;37.368;2023-05-23T03:20:49;99437.28;;;20.55;47.78
44148;BME280;29810;55.848;37.368;2023-05-23T03:23:50;99446.31;;;18.89;50.98
44148;BME280;29810;55.848;37.368;2023-05-23T03:26:52;99450.72;;;17.94;55.75
44148;BME280;29810;55.848;37.368;2023-05-23T03:29:53;99453.09;;;17.55;56.90
44148;BME280;29810;55.848;37.368;2023-05-23T03:32:54;99462.44;;;17.17;58.72
44148;BME280;29810;55.848;37.368;2023-05-23T03:35:55;99460.16;;;16.97;59.33
44148;BME280;29810;55.848;37.368;2023-05-23T03:38:57;99453.94;;;16.82;59.54
44148;BME280;29810;55.848;37.368;2023-05-23T03:41:59;99455.38;;;16.73;59.53
44148;BME280;29810;55.848;37.368;2023-05-23T03:45:00;99454.78;;;16.68;59.85
44148;BME280;29810;55.848;37.368;2023-05-23T03:48:01;99460.19;;;16.81;59.74
44148;BME280;29810;55.848;37.368;2023-05-23T03:51:03;99449.88;;;16.92;59.59
44148;BME280;29810;55.848;37.368;2023-05-23T03:54:05;99444.25;;;17.13;59.41
44148;BME280;29810;55.848;37.368;2023-05-23T03:57:06;99451.50;;;17.38;59.15
44148;BME280;29810;55.848;37.368;2023-05-23T04:00:09;99450.41;;;17.57;58.32
44148;BME280;29810;55.848;37.368;2023-05-23T04:03:18;99443.63;;;17.67;58.90
44148;BME280;29810;55.848;37.368;2023-05-23T04:06:20;99440.09;;;17.81;58.56
44148;BME280;29810;55.848;37.368;2023-05-23T04:09:22;99431.13;;;17.98;58.54
44148;BME280;29810;55.848;37.368;2023-05-23T04:12:24;99430.69;;;18.46;57.72
44148;BME280;29810;55.848;37.368;2023-05-23T04:15:26;99434.19;;;18.59;56.09
44148;BME280;29810;55.848;37.368;2023-05-23T04:18:28;99428.28;;;18.68;56.16
44148;BME280;29810;55.848;37.368;2023-05-23T04:21:30;99420.38;;;18.68;54.28
44148;BME280;29810;55.848;37.368;2023-05-23T04:24:32;99421.37;;;18.53;53.35
44148;BME280;29810;55.848;37.368;2023-05-23T04:27:34;99415.00;;;18.30;55.61
44148;BME280;29810;55.848;37.368;2023-05-23T04:30:35;99414.41;;;18.12;56.14
44148;BME280;29810;55.848;37.368;2023-05-23T04:33:37;99427.56;;;17.84;55.63
44148;BME280;29810;55.848;37.368;2023-05-23T04:36:38;99426.75;;;17.55;57.00
44148;BME280;29810;55.848;37.368;2023-05-23T04:39:40;99431.56;;;17.19;57.67
44148;BME280;29810;55.848;37.368;2023-05-23T04:42:44;99433.03;;;16.95;57.80
44148;BME280;29810;55.848;37.368;2023-05-23T04:45:46;99430.34;;;16.80;58.86
44148;BME280;29810;55.848;37.368;2023-05-23T04:48:52;99438.53;;;16.76;59.45
44148;BME280;29810;55.848;37.368;2023-05-23T04:51:54;99441.97;;;16.62;59.20
44148;BME280;29810;55.848;37.368;2023-05-23T04:54:57;99441.62;;;16.68;59.34
44148;BME280;29810;55.848;37.368;2023-05-23T04:57:58;99437.69;;;16.89;58.75
44148;BME280;29810;55.848;37.368;2023-05-23T05:01:01;99433.62;;;17.14;58.03
44148;BME280;29810;55.848;37.368;2023-05-23T05:04:02;99429.22;;;17.44;56.99
44148;BME280;29810;55.848;37.368;2023-05-23T05:07:04;99439.16;;;17.82;56.46
44148;BME280;29810;55.848;37.368;2023-05-23T05:10:05;99438.06;;;18.13;55.49
44148;BME280;29810;55.848;37.368;2023-05-23T05:13:07;99437.78;;;18.31;54.60
44148;BME280;29810;55.848;37.368;2023-05-23T05:16:10;99434.38;;;18.43;54.12
44148;BME280;29810;55.848;37.368;2023-05-23T05:19:12;99432.91;;;18.52;54.00
44148;BME280;29810;55.848;37.368;2023-05-23T05:22:13;99430.72;;;18.59;54.37
44148;BME280;29810;55.848;37.368;2023-05-23T05:25:15;99436.63;;;18.62;54.19
44148;BME280;29810;55.848;37.368;2023-05-23T05:28:16;99433.53;;;18.56;53.74
44148;BME280;29810;55.848;37.368;2023-05-23T05:31:18;99435.22;;;18.57;54.63
44148;BME280;29810;55.848;37.368;2023-05-23T05:34:19;99430.88;;;18.56;54.12
44148;BME280;29810;55.848;37.368;2023-05-23T05:37:21;99458.91;;;18.71;54.11
44148;BME280;29810;55.848;37.368;2023-05-23T05:40:23;99458.50;;;18.77;53.18
44148;BME280;29810;55.848;37.368;2023-05-23T05:43:25;99451.47;;;18.50;53.34
44148;BME280;29810;55.848;37.368;2023-05-23T05:46:26;99444.78;;;18.72;53.82
44148;BME280;29810;55.848;37.368;2023-05-23T05:49:28;99438.94;;;19.07;52.98
44148;BME280;29810;55.848;37.368;2023-05-23T05:52:30;99441.34;;;18.97;52.76
44148;BME280;29810;55.848;37.368;2023-05-23T05:55:31;99446.19;;;18.91;52.73
44148;BME280;29810;55.848;37.368;2023-05-23T05:58:32;99445.84;;;18.82;52.84
44148;BME280;29810;55.848;37.368;2023-05-23T06:01:34;99451.06;;;18.57;53.74
44148;BME280;29810;55.848;37.368;2023-05-23T06:04:35;99440.91;;;18.37;53.92
44148;BME280;29810;55.848;37.368;2023-05-23T06:07:37;99442.34;;;18.29;55.12
44148;BME280;29810;55.848;37.368;2023-05-23T06:10:40;99442.63;;;18.24;55.09
44148;BME280;29810;55.848;37.368;2023-05-23T06:13:41;99436.50;;;18.24;55.57
44148;BME280;29810;55.848;37.368;2023-05-23T06:16:43;99434.31;;;18.30;55.34
44148;BME280;29810;55.848;37.368;2023-05-23T06:19:44;99438.81;;;18.56;55.20
44148;BME280;29810;55.848;37.368;2023-05-23T06:22:46;99428.94;;;18.72;54.64
44148;BME280;29810;55.848;37.368;2023-05-23T06:25:47;99425.78;;;18.80;54.28
44148;BME280;29810;55.848;37.368;2023-05-23T06:28:48;99428.19;;;18.83;53.85
44148;BME280;29810;55.848;37.368;2023-05-23T06:31:49;99427.25;;;18.84;54.49
44148;BME280;29810;55.848;37.368;2023-05-23T06:34:51;99417.38;;;19.00;54.55
44148;BME280;29810;55.848;37.368;2023-05-23T06:37:52;99413.75;;;19.14;54.42
44148;BME280;29810;55.848;37.368;2023-05-23T06:40:54;99414.63;;;19.15;52.68
44148;BME280;29810;55.848;37.368;2023-05-23T06:43:55;99402.75;;;19.33;53.67
44148;BME280;29810;55.848;37.368;2023-05-23T06:46:57;99405.16;;;19.49;52.92
44148;BME280;29810;55.848;37.368;2023-05-23T06:49:58;99405.72;;;19.92;51.67
44148;BME280;29810;55.848;37.368;2023-05-23T06:53:00;99399.66;;;20.38;50.82
44148;BME280;29810;55.848;37.368;2023-05-23T06:56:01;99393.06;;;20.91;50.00
44148;BME280;29810;55.848;37.368;2023-05-23T06:59:05;99393.84;;;21.38;48.51
44148;BME280;29810;55.848;37.368;2023-05-23T07:02:07;99381.03;;;21.66;48.26
44148;BME280;29810;55.848;37.368;2023-05-23T07:05:09;99382.94;;;21.75;47.06
44148;BME280;29810;55.848;37.368;2023-05-23T07:08:12;99381.00;;;22.10;47.21
44148;BME280;29810;55.848;37.368;2023-05-23T07:11:14;99373.47;;;22.59;46.10
44148;BME280;29810;55.848;37.368;2023-05-23T07:14:16;99369.09;;;23.00;46.44
44148;BME280;29810;55.848;37.368;2023-05-23T07:17:18;99362.25;;;23.07;46.02
44148;BME280;29810;55.848;37.368;2023-05-23T07:20:20;99356.81;;;23.09;46.84
44148;BME280;29810;55.848;37.368;2023-05-23T07:23:24;99356.16;;;23.57;45.89
44148;BME280;29810;55.848;37.368;2023-05-23T07:26:26;99353.03;;;23.93;44.90
44148;BME280;29810;55.848;37.368;2023-05-23T07:29:28;99354.59;;;23.55;43.85
44148;BME280;29810;55.848;37.368;2023-05-23T07:32:29;99353.47;;;23.57;45.89
44148;BME280;29810;55.848;37.368;2023-05-23T07:35:31;99353.00;;;24.03;45.38
44148;BME280;29810;55.848;37.368;2023-05-23T07:38:33;99350.63;;;24.29;41.77
44148;BME280;29810;55.848;37.368;2023-05-23T07:41:35;99354.69;;;24.33;42.94
44148;BME280;29810;55.848;37.368;2023-05-23T07:44:36;99350.03;;;24.45;42.00
44148;BME280;29810;55.848;37.368;2023-05-23T07:47:38;99348.91;;;24.67;42.39
44148;BME280;29810;55.848;37.368;2023-05-23T07:50:40;99343.91;;;24.92;42.45
44148;BME280;29810;55.848;37.368;2023-05-23T07:53:42;99357.56;;;25.17;42.25
44148;BME280;29810;55.848;37.368;2023-05-23T07:56:44;99355.88;;;25.16;41.95
44148;BME280;29810;55.848;37.368;2023-05-23T07:59:46;99365.62;;;25.44;41.66
44148;BME280;29810;55.848;37.368;2023-05-23T08:02:48;99358.47;;;25.45;42.59
44148;BME280;29810;55.848;37.368;2023-05-23T08:05:51;99351.00;;;25.49;42.41
44148;BME280;29810;55.848;37.368;2023-05-23T08:08:52;99347.03;;;25.53;41.89
44148;BME280;29810;55.848;37.368;2023-05-23T08:11:53;99356.50;;;25.65;41.82
44148;BME280;29810;55.848;37.368;2023-05-23T08:14:56;99350.69;;;25.52;37.58
44148;BME280;29810;55.848;37.368;2023-05-23T08:17:58;99354.50;;;25.49;41.53
44148;BME280;29810;55.848;37.368;2023-05-23T08:21:00;99353.69;;;25.67;41.25
44148;BME280;29810;55.848;37.368;2023-05-23T08:24:03;99351.41;;;25.54;40.85
44148;BME280;29810;55.848;37.368;2023-05-23T08:27:04;99361.56;;;25.40;41.04
44148;BME280;29810;55.848;37.368;2023-05-23T08:30:10;99357.31;;;25.20;40.88
44148;BME280;29810;55.848;37.368;2023-05-23T08:33:11;99355.47;;;25.10;40.71
44148;BME280;29810;55.848;37.368;2023-05-23T08:36:13;99353.25;;;24.68;40.04
44148;BME280;29810;55.848;37.368;2023-05-23T08:39:15;99354.53;;;24.44;40.54
44148;BME280;29810;55.848;37.368;2023-05-23T08:42:18;99351.72;;;24.56;40.97
44148;BME280;29810;55.848;37.368;2023-05-23T08:45:19;99350.72;;;24.57;40.67
44148;BME280;29810;55.848;37.368;2023-05-23T08:48:21;99343.47;;;24.49;38.37
44148;BME280;29810;55.848;37.368;2023-05-23T08:51:26;99349.06;;;24.26;39.89
44148;BME280;29810;55.848;37.368;2023-05-23T08:54:28;99341.91;;;24.37;40.49
44148;BME280;29810;55.848;37.368;2023-05-23T08:57:30;99346.81;;;24.61;40.12
44148;BME280;29810;55.848;37.368;2023-05-23T09:00:34;99345.69;;;24.63;40.54
44148;BME280;29810;55.848;37.368;2023-05-23T09:03:36;99342.09;;;24.92;40.47
44148;BME280;29810;55.848;37.368;2023-05-23T09:06:38;99347.13;;;25.05;39.83
44148;BME280;29810;55.848;37.368;2023-05-23T09:09:40;99343.88;;;24.44;41.17
44148;BME280;29810;55.848;37.368;2023-05-23T09:12:44;99346.25;;;24.47;41.03
44148;BME280;29810;55.848;37.368;2023-05-23T09:19:08;99345.25;;;24.48;40.33
44148;BME280;29810;55.848;37.368;2023-05-23T09:22:10;99345.31;;;24.19;41.92
44148;BME280;29810;55.848;37.368;2023-05-23T09:25:13;99346.44;;;23.97;41.96
44148;BME280;29810;55.848;37.368;2023-05-23T09:28:15;99346.37;;;23.77;42.82
44148;BME280;29810;55.848;37.368;2023-05-23T09:31:17;99344.91;;;24.14;42.38
44148;BME280;29810;55.848;37.368;2023-05-23T09:34:18;99348.66;;;24.31;42.28
44148;BME280;29810;55.848;37.368;2023-05-23T09:37:20;99362.00;;;24.31;42.54
44148;BME280;29810;55.848;37.368;2023-05-23T09:40:33;99347.13;;;24.09;42.98
44148;BME280;29810;55.848;37.368;2023-05-23T09:43:34;99341.03;;;23.58;43.87
44148;BME280;29810;55.848;37.368;2023-05-23T09:46:37;99361.25;;;23.29;45.15
44148;BME280;29810;55.848;37.368;2023-05-23T09:49:39;99364.62;;;23.10;45.69
44148;BME280;29810;55.848;37.368;2023-05-23T09:52:41;99366.09;;;22.93;46.01
44148;BME280;29810;55.848;37.368;2023-05-23T09:55:43;99357.03;;;23.17;45.85
44148;BME280;29810;55.848;37.368;2023-05-23T09:58:48;99360.16;;;23.32;45.54
44148;BME280;29810;55.848;37.368;2023-05-23T10:01:50;99364.44;;;23.23;46.08
44148;BME280;29810;55.848;37.368;2023-05-23T10:04:51;99362.19;;;23.59;45.18
44148;BME280;29810;55.848;37.368;2023-05-23T10:07:53;99360.72;;;23.45;45.69
44148;BME280;29810;55.848;37.368;2023-05-23T10:14:02;99370.03;;;23.61;45.89
44148;BME280;29810;55.848;37.368;2023-05-23T10:17:14;99373.69;;;23.70;45.93
44148;BME280;29810;55.848;37.368;2023-05-23T10:20:17;99372.81;;;23.59;45.91
44148;BME280;29810;55.848;37.368;2023-05-23T10:23:22;99376.16;;;23.52;46.08
44148;BME280;29810;55.848;37.368;2023-05-23T10:26:24;99386.34;;;23.37;45.70
44148;BME280;29810;55.848;37.368;2023-05-23T10:29:26;99392.22;;;23.09;46.77
44148;BME280;29810;55.848;37.368;2023-05-23T10:32:29;99391.72;;;22.94;47.17
44148;BME280;29810;55.848;37.368;2023-05-23T10:38:40;99392.47;;;22.75;47.95
44148;BME280;29810;55.848;37.368;2023-05-23T10:41:47;99398.09;;;22.82;48.16
44148;BME280;29810;55.848;37.368;2023-05-23T10:44:50;99396.78;;;22.76;48.57
44148;BME280;29810;55.848;37.368;2023-05-23T10:47:52;99383.22;;;22.37;49.29
44148;BME280;29810;55.848;37.368;2023-05-23T10:51:06;99397.50;;;22.25;49.84
44148;BME280;29810;55.848;37.368;2023-05-23T10:54:11;99395.66;;;22.04;50.63
44148;BME280;29810;55.848;37.368;2023-05-23T10:57:15;99399.41;;;21.90;51.19
44148;BME280;29810;55.848;37.368;2023-05-23T11:00:16;99403.22;;;21.76;51.75
44148;BME280;29810;55.848;37.368;2023-05-23T11:03:18;99397.91;;;21.76;52.36
44148;BME280;29810;55.848;37.368;2023-05-23T11:09:30;99404.31;;;21.28;53.89
44148;BME280;29810;55.848;37.368;2023-05-23T11:12:35;99407.22;;;21.25;54.05
44148;BME280;29810;55.848;37.368;2023-05-23T11:15:40;99406.37;;;21.13;54.47
44148;BME280;29810;55.848;37.368;2023-05-23T11:18:42;99405.59;;;21.00;54.83
44148;BME280;29810;55.848;37.368;2023-05-23T11:21:45;99399.97;;;20.58;57.00
44148;BME280;29810;55.848;37.368;2023-05-23T11:24:51;99401.75;;;20.22;58.12
44148;BME280;29810;55.848;37.368;2023-05-23T11:27:52;99403.72;;;19.82;59.41
44148;BME280;29810;55.848;37.368;2023-05-23T11:30:55;99408.97;;;19.45;62.72
44148;BME280;29810;55.848;37.368;2023-05-23T11:33:56;99413.16;;;18.98;65.90
44148;BME280;29810;55.848;37.368;2023-05-23T11:36:58;99401.28;;;18.91;64.33
44148;BME280;29810;55.848;37.368;2023-05-23T11:40:23;99413.63;;;18.77;66.23
44148;BME280;29810;55.848;37.368;2023-05-23T11:43:21;99418.06;;;18.77;65.77
44148;BME280;29810;55.848;37.368;2023-05-23T11:46:22;99421.00;;;18.72;66.96
44148;BME280;29810;55.848;37.368;2023-05-23T11:49:23;99421.63;;;18.63;66.49
44148;BME280;29810;55.848;37.368;2023-05-23T11:52:24;99430.31;;;18.65;66.67
44148;BME280;29810;55.848;37.368;2023-05-23T11:55:33;99433.78;;;18.65;66.88
44148;BME280;29810;55.848;37.368;2023-05-23T11:58:37;99427.75;;;18.63;66.40
44148;BME280;29810;55.848;37.368;2023-05-23T12:01:39;99430.59;;;18.60;66.87
44148;BME280;29810;55.848;37.368;2023-05-23T12:04:41;99429.56;;;18.63;67.43
44148;BME280;29810;55.848;37.368;2023-05-23T12:07:43;99426.69;;;18.66;67.46
44148;BME280;29810;55.848;37.368;2023-05-23T12:11:02;99429.34;;;18.66;68.71
44148;BME280;29810;55.848;37.368;2023-05-23T12:14:03;99424.47;;;18.60;68.43
44148;BME280;29810;55.848;37.368;2023-05-23T12:17:06;99426.38;;;18.58;68.77
44148;BME280;29810;55.848;37.368;2023-05-23T12:20:07;99424.13;;;18.51;69.36
44148;BME280;29810;55.848;37.368;2023-05-23T12:23:20;99425.53;;;18.57;69.75
44148;BME280;29810;55.848;37.368;2023-05-23T12:26:21;99422.56;;;18.62;70.20
44148;BME280;29810;55.848;37.368;2023-05-23T12:29:29;99413.31;;;18.69;71.08
44148;BME280;29810;55.848;37.368;2023-05-23T12:32:31;99408.88;;;18.82;70.41
44148;BME280;29810;55.848;37.368;2023-05-23T12:35:33;99409.13;;;19.05;70.48
44148;BME280;29810;55.848;37.368;2023-05-23T12:38:35;99402.00;;;19.44;69.12
44148;BME280;29810;55.848;37.368;2023-05-23T12:41:38;99396.94;;;19.78;68.96
44148;BME280;29810;55.848;37.368;2023-05-23T12:44:41;99393.53;;;20.13;68.80
44148;BME280;29810;55.848;37.368;2023-05-23T12:47:43;99393.34;;;20.28;68.84
44148;BME280;29810;55.848;37.368;2023-05-23T12:50:44;99389.06;;;20.38;68.57
44148;BME280;29810;55.848;37.368;2023-05-23T12:53:46;99386.66;;;20.35;68.77
44148;BME280;29810;55.848;37.368;2023-05-23T12:56:47;99388.25;;;20.38;68.82
44148;BME280;29810;55.848;37.368;2023-05-23T12:59:49;99392.66;;;20.37;69.04
44148;BME280;29810;55.848;37.368;2023-05-23T13:02:50;99383.00;;;20.25;69.50
44148;BME280;29810;55.848;37.368;2023-05-23T13:05:52;99385.97;;;20.44;69.03
44148;BME280;29810;55.848;37.368;2023-05-23T13:08:53;99389.53;;;20.32;69.61
44148;BME280;29810;55.848;37.368;2023-05-23T13:11:55;99384.31;;;20.55;68.91
44148;BME280;29810;55.848;37.368;2023-05-23T13:14:56;99378.72;;;20.71;68.79
44148;BME280;29810;55.848;37.368;2023-05-23T13:17:59;99380.59;;;20.68;68.22
44148;BME280;29810;55.848;37.368;2023-05-23T13:21:00;99379.12;;;20.53;68.78
44148;BME280;29810;55.848;37.368;2023-05-23T13:24:01;99372.28;;;20.50;68.93
44148;BME280;29810;55.848;37.368;2023-05-23T13:27:03;99377.25;;;20.66;68.21
44148;BME280;29810;55.848;37.368;2023-05-23T13:30:05;99379.50;;;20.60;68.32
44148;BME280;29810;55.848;37.368;2023-05-23T13:33:06;99366.47;;;20.45;68.51
44148;BME280;29810;55.848;37.368;2023-05-23T13:36:08;99359.75;;;20.52;69.08
44148;BME280;29810;55.848;37.368;2023-05-23T13:39:09;99360.59;;;20.64;69.43
44148;BME280;29810;55.848;37.368;2023-05-23T13:42:10;99362.69;;;20.72;68.52
44148;BME280;29810;55.848;37.368;2023-05-23T13:45:11;99360.44;;;20.90;67.37
44148;BME280;29810;55.848;37.368;2023-05-23T13:48:13;99360.06;;;20.83;67.22
44148;BME280;29810;55.848;37.368;2023-05-23T13:51:15;99358.63;;;20.91;67.16
44148;BME280;29810;55.848;37.368;2023-05-23T13:54:16;99353.00;;;21.07;66.75
44148;BME280;29810;55.848;37.368;2023-05-23T13:57:17;99353.56;;;21.22;66.24
44148;BME280;29810;55.848;37.368;2023-05-23T14:00:19;99354.06;;;21.27;66.10
44148;BME280;29810;55.848;37.368;2023-05-23T14:03:20;99361.19;;;21.26;66.08
44148;BME280;29810;55.848;37.368;2023-05-23T14:06:21;99361.91;;;21.06;65.94
44148;BME280;29810;55.848;37.368;2023-05-23T14:09:23;99361.28;;;20.79;66.85
44148;BME280;29810;55.848;37.368;2023-05-23T14:12:24;99361.50;;;20.41;67.08
44148;BME280;29810;55.848;37.368;2023-05-23T14:15:26;99369.84;;;19.88;70.86
44148;BME280;29810;55.848;37.368;2023-05-23T14:18:28;99372.59;;;19.73;72.12
44148;BME280;29810;55.848;37.368;2023-05-23T14:21:29;99357.47;;;19.75;71.58
44148;BME280;29810;55.848;37.368;2023-05-23T14:24:31;99369.06;;;19.61;72.28
44148;BME280;29810;55.848;37.368;2023-05-23T14:27:32;99371.59;;;19.63;72.07
44148;BME280;29810;55.848;37.368;2023-05-23T14:30:34;99372.22;;;19.66;71.51
44148;BME280;29810;55.848;37.368;2023-05-23T14:33:36;99361.09;;;19.74;70.66
44148;BME280;29810;55.848;37.368;2023-05-23T14:36:37;99360.63;;;19.80;69.40
44148;BME280;29810;55.848;37.368;2023-05-23T14:39:39;99351.69;;;19.70;70.72
44148;BME280;29810;55.848;37.368;2023-05-23T14:42:40;99356.22;;;19.68;70.15
44148;BME280;29810;55.848;37.368;2023-05-23T14:45:42;99344.94;;;19.66;70.09
44148;BME280;29810;55.848;37.368;2023-05-23T14:48:43;99352.63;;;19.69;70.55
44148;BME280;29810;55.848;37.368;2023-05-23T14:51:44;99326.22;;;19.56;69.83
44148;BME280;29810;55.848;37.368;2023-05-23T14:54:45;99341.62;;;19.75;69.85
44148;BME280;29810;55.848;37.368;2023-05-23T14:57:47;99339.91;;;19.74;69.62
44148;BME280;29810;55.848;37.368;2023-05-23T15:00:48;99334.44;;;19.77;70.08
44148;BME280;29810;55.848;37.368;2023-05-23T15:03:50;99328.50;;;19.74;71.01
44148;BME280;29810;55.848;37.368;2023-05-23T15:06:51;99321.47;;;19.61;71.74
44148;BME280;29810;55.848;37.368;2023-05-23T15:09:52;99302.81;;;19.39;72.19
44148;BME280;29810;55.848;37.368;2023-05-23T15:12:53;99323.28;;;19.61;72.05
44148;BME280;29810;55.848;37.368;2023-05-23T15:15:55;99319.50;;;19.76;70.83
44148;BME280;29810;55.848;37.368;2023-05-23T15:18:56;99315.03;;;19.90;69.72
44148;BME280;29810;55.848;37.368;2023-05-23T15:21:57;99312.28;;;19.78;70.53
44148;BME280;29810;55.848;37.368;2023-05-23T15:24:58;99311.78;;;19.73;71.15
44148;BME280;29810;55.848;37.368;2023-05-23T15:28:04;99303.12;;;19.71;70.64
44148;BME280;29810;55.848;37.368;2023-05-23T15:31:05;99308.84;;;19.65;71.21
44148;BME280;29810;55.848;37.368;2023-05-23T15:34:06;99305.72;;;19.60;71.49
44148;BME280;29810;55.848;37.368;2023-05-23T15:37:07;99303.09;;;19.47;71.39
44148;BME280;29810;55.848;37.368;2023-05-23T15:40:09;99303.34;;;19.44;71.07
44148;BME280;29810;55.848;37.368;2023-05-23T15:43:11;99298.72;;;19.34;72.62
44148;BME280;29810;55.848;37.368;2023-05-23T15:46:12;99294.69;;;18.92;76.43
44148;BME280;29810;55.848;37.368;2023-05-23T15:49:13;99298.91;;;18.68;78.35
44148;BME280;29810;55.848;37.368;2023-05-23T15:52:15;99296.06;;;18.59;78.20
44148;BME280;29810;55.848;37.368;2023-05-23T15:55:16;99284.22;;;18.51;78.43
44148;BME280;29810;55.848;37.368;2023-05-23T15:58:17;99298.38;;;18.50;77.44
44148;BME280;29810;55.848;37.368;2023-05-23T16:01:18;99293.50;;;18.31;79.77
44148;BME280;29810;55.848;37.368;2023-05-23T16:04:20;99293.28;;;18.09;83.02
44148;BME280;29810;55.848;37.368;2023-05-23T16:07:22;99283.78;;;17.79;86.82
44148;BME280;29810;55.848;37.368;2023-05-23T16:10:24;99285.37;;;17.81;86.39